sensor_id;sensor_type;location;lat;lon;timestamp;P1;durP1;ratioP1;P2;durP2;ratioP2
11338;SDS011;5724;42.684;23.252;2022-10-22T00:01:29;24.20;;;20.53;;
11338;SDS011;5724;42.684;23.252;2022-10-22T00:03:55;23.63;;;21.10;;
11338;SDS011;5724;42.684;23.252;2022-10-22T00:06:20;24.80;;;21.60;;
11338;SDS011;5724;42.684;23.252;2022-10-22T00:08:46;23.20;;;19.97;;
11338;SDS011;5724;42.684;23.252;2022-10-22T00:11:13;25.67;;;20.77;;
11338;SDS011;5724;42.684;23.252;2022-10-22T00:13:39;22.97;;;20.50;;
11338;SDS011;5724;42.684;23.252;2022-10-22T00:16:05;27.57;;;20.43;;
11338;SDS011;5724;42.684;23.252;2022-10-22T00:18:31;23.70;;;21.37;;
11338;SDS011;5724;42.684;23.252;2022-10-22T00:20:56;25.17;;;20.67;;
11338;SDS011;5724;42.684;23.252;2022-10-22T00:23:22;26.03;;;21.03;;
11338;SDS011;5724;42.684;23.252;2022-10-22T00:25:47;20.67;;;18.47;;
11338;SDS011;5724;42.684;23.252;2022-10-22T00:28:13;21.83;;;19.53;;
11338;SDS011;5724;42.684;23.252;2022-10-22T00:30:39;22.53;;;20.07;;
11338;SDS011;5724;42.684;23.252;2022-10-22T00:33:04;22.97;;;19.43;;
11338;SDS011;5724;42.684;23.252;2022-10-22T00:35:30;22.40;;;20.03;;
11338;SDS011;5724;42.684;23.252;2022-10-22T00:37:56;26.17;;;20.23;;
11338;SDS011;5724;42.684;23.252;2022-10-22T00:40:22;24.53;;;19.50;;
11338;SDS011;5724;42.684;23.252;2022-10-22T00:42:47;27.03;;;19.50;;
11338;SDS011;5724;42.684;23.252;2022-10-22T00:45:14;22.47;;;20.07;;
11338;SDS011;5724;42.684;23.252;2022-10-22T00:47:43;22.70;;;19.90;;
11338;SDS011;5724;42.684;23.252;2022-10-22T00:50:12;24.13;;;20.30;;
11338;SDS011;5724;42.684;23.252;2022-10-22T00:52:41;22.03;;;19.67;;
11338;SDS011;5724;42.684;23.252;2022-10-22T00:55:07;22.80;;;19.90;;
11338;SDS011;5724;42.684;23.252;2022-10-22T00:57:33;22.87;;;20.47;;
11338;SDS011;5724;42.684;23.252;2022-10-22T00:59:59;23.90;;;21.17;;
11338;SDS011;5724;42.684;23.252;2022-10-22T01:02:24;23.07;;;20.67;;
11338;SDS011;5724;42.684;23.252;2022-10-22T01:04:50;22.30;;;20.00;;
11338;SDS011;5724;42.684;23.252;2022-10-22T01:07:17;23.70;;;21.20;;
11338;SDS011;5724;42.684;23.252;2022-10-22T01:17:54;24.67;;;21.97;;
11338;SDS011;5724;42.684;23.252;2022-10-22T01:23:15;25.73;;;21.60;;
11338;SDS011;5724;42.684;23.252;2022-10-22T01:28:49;28.40;;;21.17;;
11338;SDS011;5724;42.684;23.252;2022-10-22T01:31:28;24.00;;;20.27;;
11338;SDS011;5724;42.684;23.252;2022-10-22T01:33:58;23.67;;;21.17;;
11338;SDS011;5724;42.684;23.252;2022-10-22T01:36:26;23.30;;;20.90;;
11338;SDS011;5724;42.684;23.252;2022-10-22T01:38:55;24.73;;;20.70;;
11338;SDS011;5724;42.684;23.252;2022-10-22T01:41:22;24.40;;;21.80;;
11338;SDS011;5724;42.684;23.252;2022-10-22T01:43:48;25.57;;;21.50;;
11338;SDS011;5724;42.684;23.252;2022-10-22T01:46:13;23.77;;;21.30;;
11338;SDS011;5724;42.684;23.252;2022-10-22T01:54:29;24.53;;;21.93;;
11338;SDS011;5724;42.684;23.252;2022-10-22T02:02:39;25.43;;;21.40;;
11338;SDS011;5724;42.684;23.252;2022-10-22T02:05:15;24.93;;;22.33;;
11338;SDS011;5724;42.684;23.252;2022-10-22T02:07:51;26.20;;;22.57;;
11338;SDS011;5724;42.684;23.252;2022-10-22T02:10:20;24.00;;;21.10;;
11338;SDS011;5724;42.684;23.252;2022-10-22T02:12:48;24.00;;;21.50;;
11338;SDS011;5724;42.684;23.252;2022-10-22T02:15:16;26.93;;;21.70;;
11338;SDS011;5724;42.684;23.252;2022-10-22T02:17:44;24.40;;;21.77;;
11338;SDS011;5724;42.684;23.252;2022-10-22T02:20:15;25.03;;;21.47;;
11338;SDS011;5724;42.684;23.252;2022-10-22T02:22:43;25.53;;;22.07;;
11338;SDS011;5724;42.684;23.252;2022-10-22T02:25:09;23.80;;;21.20;;
11338;SDS011;5724;42.684;23.252;2022-10-22T02:30:10;27.43;;;23.07;;
11338;SDS011;5724;42.684;23.252;2022-10-22T02:33:23;28.47;;;22.90;;
11338;SDS011;5724;42.684;23.252;2022-10-22T02:35:29;26.13;;;22.03;;
11338;SDS011;5724;42.684;23.252;2022-10-22T02:37:56;23.47;;;21.17;;
11338;SDS011;5724;42.684;23.252;2022-10-22T02:40:23;26.40;;;21.63;;
11338;SDS011;5724;42.684;23.252;2022-10-22T02:42:50;23.53;;;20.97;;
11338;SDS011;5724;42.684;23.252;2022-10-22T02:45:16;25.87;;;21.60;;
11338;SDS011;5724;42.684;23.252;2022-10-22T02:47:43;24.00;;;21.57;;
11338;SDS011;5724;42.684;23.252;2022-10-22T02:50:09;23.33;;;20.83;;
11338;SDS011;5724;42.684;23.252;2022-10-22T02:52:34;25.87;;;21.43;;
11338;SDS011;5724;42.684;23.252;2022-10-22T02:55:00;25.43;;;22.83;;
11338;SDS011;5724;42.684;23.252;2022-10-22T02:57:26;26.93;;;23.83;;
11338;SDS011;5724;42.684;23.252;2022-10-22T02:59:51;27.43;;;24.37;;
11338;SDS011;5724;42.684;23.252;2022-10-22T03:02:16;28.17;;;23.33;;
11338;SDS011;5724;42.684;23.252;2022-10-22T03:04:42;26.27;;;23.40;;
11338;SDS011;5724;42.684;23.252;2022-10-22T03:07:07;28.67;;;24.23;;
11338;SDS011;5724;42.684;23.252;2022-10-22T03:09:33;28.23;;;24.07;;
11338;SDS011;5724;42.684;23.252;2022-10-22T03:11:58;27.43;;;23.67;;
11338;SDS011;5724;42.684;23.252;2022-10-22T03:14:24;26.70;;;22.93;;
11338;SDS011;5724;42.684;23.252;2022-10-22T03:16:49;25.73;;;22.17;;
11338;SDS011;5724;42.684;23.252;2022-10-22T03:19:14;27.27;;;22.70;;
11338;SDS011;5724;42.684;23.252;2022-10-22T03:21:50;26.87;;;24.03;;
11338;SDS011;5724;42.684;23.252;2022-10-22T03:24:24;27.67;;;23.50;;
11338;SDS011;5724;42.684;23.252;2022-10-22T03:26:54;26.33;;;21.63;;
11338;SDS011;5724;42.684;23.252;2022-10-22T03:29:20;28.07;;;21.90;;
11338;SDS011;5724;42.684;23.252;2022-10-22T03:31:47;27.07;;;22.17;;
11338;SDS011;5724;42.684;23.252;2022-10-22T03:34:13;24.03;;;21.47;;
11338;SDS011;5724;42.684;23.252;2022-10-22T03:36:39;22.83;;;20.50;;
11338;SDS011;5724;42.684;23.252;2022-10-22T03:39:06;24.23;;;20.80;;
11338;SDS011;5724;42.684;23.252;2022-10-22T03:41:32;24.70;;;21.27;;
11338;SDS011;5724;42.684;23.252;2022-10-22T03:43:58;24.57;;;21.87;;
11338;SDS011;5724;42.684;23.252;2022-10-22T03:46:25;24.47;;;21.87;;
11338;SDS011;5724;42.684;23.252;2022-10-22T03:48:51;25.50;;;21.23;;
11338;SDS011;5724;42.684;23.252;2022-10-22T03:51:16;27.53;;;21.33;;
11338;SDS011;5724;42.684;23.252;2022-10-22T03:53:42;23.07;;;20.63;;
11338;SDS011;5724;42.684;23.252;2022-10-22T03:56:08;22.37;;;20.07;;
11338;SDS011;5724;42.684;23.252;2022-10-22T03:58:34;24.63;;;21.97;;
11338;SDS011;5724;42.684;23.252;2022-10-22T04:01:07;28.27;;;22.17;;
11338;SDS011;5724;42.684;23.252;2022-10-22T04:03:34;26.27;;;21.73;;
11338;SDS011;5724;42.684;23.252;2022-10-22T04:06:01;23.10;;;20.67;;
11338;SDS011;5724;42.684;23.252;2022-10-22T04:08:30;22.93;;;20.50;;
11338;SDS011;5724;42.684;23.252;2022-10-22T04:10:56;22.80;;;20.40;;
11338;SDS011;5724;42.684;23.252;2022-10-22T04:13:21;23.63;;;20.63;;
11338;SDS011;5724;42.684;23.252;2022-10-22T04:15:47;26.03;;;20.73;;
11338;SDS011;5724;42.684;23.252;2022-10-22T04:18:13;24.67;;;21.17;;
11338;SDS011;5724;42.684;23.252;2022-10-22T04:20:40;23.80;;;20.83;;
11338;SDS011;5724;42.684;23.252;2022-10-22T04:23:05;25.53;;;21.50;;
11338;SDS011;5724;42.684;23.252;2022-10-22T04:25:31;23.87;;;20.50;;
11338;SDS011;5724;42.684;23.252;2022-10-22T04:27:56;26.57;;;21.53;;
11338;SDS011;5724;42.684;23.252;2022-10-22T04:30:22;23.13;;;20.57;;
11338;SDS011;5724;42.684;23.252;2022-10-22T04:32:47;22.30;;;19.93;;
11338;SDS011;5724;42.684;23.252;2022-10-22T04:35:13;23.20;;;20.73;;
11338;SDS011;5724;42.684;23.252;2022-10-22T04:37:38;22.83;;;20.43;;
11338;SDS011;5724;42.684;23.252;2022-10-22T04:40:04;23.40;;;20.90;;
11338;SDS011;5724;42.684;23.252;2022-10-22T04:42:30;22.30;;;19.87;;
11338;SDS011;5724;42.684;23.252;2022-10-22T04:44:55;24.13;;;21.50;;
11338;SDS011;5724;42.684;23.252;2022-10-22T04:47:21;23.23;;;20.87;;
11338;SDS011;5724;42.684;23.252;2022-10-22T04:49:46;23.30;;;20.83;;
11338;SDS011;5724;42.684;23.252;2022-10-22T04:52:12;22.63;;;20.23;;
11338;SDS011;5724;42.684;23.252;2022-10-22T04:54:37;24.33;;;21.77;;
11338;SDS011;5724;42.684;23.252;2022-10-22T04:57:02;23.70;;;21.30;;
11338;SDS011;5724;42.684;23.252;2022-10-22T04:59:28;25.87;;;22.40;;
11338;SDS011;5724;42.684;23.252;2022-10-22T05:01:53;25.23;;;22.47;;
11338;SDS011;5724;42.684;23.252;2022-10-22T05:04:19;25.50;;;22.37;;
11338;SDS011;5724;42.684;23.252;2022-10-22T05:06:44;25.10;;;22.37;;
11338;SDS011;5724;42.684;23.252;2022-10-22T05:09:12;29.33;;;22.83;;
11338;SDS011;5724;42.684;23.252;2022-10-22T05:11:39;31.07;;;23.63;;
11338;SDS011;5724;42.684;23.252;2022-10-22T05:14:07;29.47;;;22.93;;
11338;SDS011;5724;42.684;23.252;2022-10-22T05:16:34;26.20;;;23.40;;
11338;SDS011;5724;42.684;23.252;2022-10-22T05:19:00;31.33;;;25.77;;
11338;SDS011;5724;42.684;23.252;2022-10-22T05:21:26;34.83;;;28.57;;
11338;SDS011;5724;42.684;23.252;2022-10-22T05:23:52;38.23;;;27.93;;
11338;SDS011;5724;42.684;23.252;2022-10-22T05:26:20;35.47;;;27.83;;
11338;SDS011;5724;42.684;23.252;2022-10-22T05:28:46;32.63;;;26.70;;
11338;SDS011;5724;42.684;23.252;2022-10-22T05:31:13;28.93;;;25.93;;
11338;SDS011;5724;42.684;23.252;2022-10-22T05:33:40;35.67;;;27.83;;
11338;SDS011;5724;42.684;23.252;2022-10-22T05:36:07;32.57;;;26.80;;
11338;SDS011;5724;42.684;23.252;2022-10-22T05:38:34;34.50;;;25.73;;
11338;SDS011;5724;42.684;23.252;2022-10-22T05:41:01;31.93;;;26.20;;
11338;SDS011;5724;42.684;23.252;2022-10-22T05:43:27;35.17;;;28.03;;
11338;SDS011;5724;42.684;23.252;2022-10-22T05:45:54;35.63;;;27.93;;
11338;SDS011;5724;42.684;23.252;2022-10-22T05:48:20;31.30;;;26.37;;
11338;SDS011;5724;42.684;23.252;2022-10-22T05:50:46;30.83;;;25.83;;
11338;SDS011;5724;42.684;23.252;2022-10-22T05:53:15;30.43;;;25.80;;
11338;SDS011;5724;42.684;23.252;2022-10-22T05:55:42;28.90;;;25.80;;
11338;SDS011;5724;42.684;23.252;2022-10-22T05:58:08;30.63;;;25.90;;
11338;SDS011;5724;42.684;23.252;2022-10-22T06:00:34;31.17;;;25.33;;
11338;SDS011;5724;42.684;23.252;2022-10-22T06:03:00;44.97;;;29.67;;
11338;SDS011;5724;42.684;23.252;2022-10-22T06:05:25;47.23;;;31.20;;
11338;SDS011;5724;42.684;23.252;2022-10-22T06:07:51;45.37;;;29.40;;
11338;SDS011;5724;42.684;23.252;2022-10-22T06:10:17;34.87;;;27.73;;
11338;SDS011;5724;42.684;23.252;2022-10-22T06:12:45;42.10;;;28.07;;
11338;SDS011;5724;42.684;23.252;2022-10-22T06:15:13;34.73;;;26.50;;
11338;SDS011;5724;42.684;23.252;2022-10-22T06:17:40;36.13;;;25.83;;
11338;SDS011;5724;42.684;23.252;2022-10-22T06:20:08;34.17;;;25.30;;
11338;SDS011;5724;42.684;23.252;2022-10-22T06:22:33;32.13;;;24.07;;
11338;SDS011;5724;42.684;23.252;2022-10-22T06:24:59;31.97;;;24.33;;
11338;SDS011;5724;42.684;23.252;2022-10-22T06:27:24;30.10;;;24.40;;
11338;SDS011;5724;42.684;23.252;2022-10-22T06:29:50;31.67;;;24.73;;
11338;SDS011;5724;42.684;23.252;2022-10-22T06:32:15;33.03;;;26.60;;
11338;SDS011;5724;42.684;23.252;2022-10-22T06:34:40;33.30;;;26.87;;
11338;SDS011;5724;42.684;23.252;2022-10-22T06:37:06;32.58;;;27.27;;
11338;SDS011;5724;42.684;23.252;2022-10-22T06:39:33;35.13;;;26.98;;
11338;SDS011;5724;42.684;23.252;2022-10-22T06:41:58;29.30;;;24.47;;
11338;SDS011;5724;42.684;23.252;2022-10-22T06:44:24;28.13;;;25.10;;
11338;SDS011;5724;42.684;23.252;2022-10-22T06:46:49;29.00;;;25.85;;
11338;SDS011;5724;42.684;23.252;2022-10-22T06:49:19;30.85;;;26.10;;
11338;SDS011;5724;42.684;23.252;2022-10-22T06:51:44;31.80;;;25.05;;
11338;SDS011;5724;42.684;23.252;2022-10-22T06:54:13;35.20;;;25.10;;
11338;SDS011;5724;42.684;23.252;2022-10-22T06:56:38;27.98;;;24.80;;
11338;SDS011;5724;42.684;23.252;2022-10-22T06:59:04;29.08;;;24.65;;
11338;SDS011;5724;42.684;23.252;2022-10-22T07:01:30;29.90;;;25.55;;
11338;SDS011;5724;42.684;23.252;2022-10-22T07:03:57;27.08;;;24.33;;
11338;SDS011;5724;42.684;23.252;2022-10-22T07:06:24;32.42;;;23.92;;
11338;SDS011;5724;42.684;23.252;2022-10-22T07:08:50;30.98;;;22.95;;
11338;SDS011;5724;42.684;23.252;2022-10-22T07:11:18;30.40;;;24.15;;
11338;SDS011;5724;42.684;23.252;2022-10-22T07:13:46;28.33;;;23.95;;
11338;SDS011;5724;42.684;23.252;2022-10-22T07:16:12;28.05;;;22.67;;
11338;SDS011;5724;42.684;23.252;2022-10-22T07:18:39;27.40;;;22.77;;
11338;SDS011;5724;42.684;23.252;2022-10-22T07:21:05;29.40;;;21.58;;
11338;SDS011;5724;42.684;23.252;2022-10-22T07:23:32;23.48;;;21.08;;
11338;SDS011;5724;42.684;23.252;2022-10-22T07:25:57;21.73;;;19.50;;
11338;SDS011;5724;42.684;23.252;2022-10-22T07:28:23;24.55;;;21.65;;
11338;SDS011;5724;42.684;23.252;2022-10-22T07:30:49;23.65;;;20.83;;
11338;SDS011;5724;42.684;23.252;2022-10-22T07:33:15;24.33;;;21.95;;
11338;SDS011;5724;42.684;23.252;2022-10-22T07:35:41;25.80;;;23.00;;
11338;SDS011;5724;42.684;23.252;2022-10-22T07:38:06;25.55;;;23.02;;
11338;SDS011;5724;42.684;23.252;2022-10-22T07:40:33;28.40;;;23.85;;
11338;SDS011;5724;42.684;23.252;2022-10-22T07:42:59;25.85;;;23.13;;
11338;SDS011;5724;42.684;23.252;2022-10-22T07:45:24;34.05;;;23.67;;
11338;SDS011;5724;42.684;23.252;2022-10-22T07:47:50;28.73;;;25.70;;
11338;SDS011;5724;42.684;23.252;2022-10-22T07:50:16;34.67;;;27.42;;
11338;SDS011;5724;42.684;23.252;2022-10-22T07:52:42;32.15;;;27.80;;
11338;SDS011;5724;42.684;23.252;2022-10-22T07:55:08;39.83;;;32.58;;
11338;SDS011;5724;42.684;23.252;2022-10-22T07:57:34;46.65;;;33.63;;
11338;SDS011;5724;42.684;23.252;2022-10-22T08:00:03;42.90;;;33.47;;
11338;SDS011;5724;42.684;23.252;2022-10-22T08:02:29;41.13;;;32.85;;
11338;SDS011;5724;42.684;23.252;2022-10-22T08:04:54;45.90;;;34.22;;
11338;SDS011;5724;42.684;23.252;2022-10-22T08:07:21;34.78;;;29.45;;
11338;SDS011;5724;42.684;23.252;2022-10-22T08:09:47;34.78;;;30.25;;
11338;SDS011;5724;42.684;23.252;2022-10-22T08:12:13;32.42;;;25.67;;
11338;SDS011;5724;42.684;23.252;2022-10-22T08:14:38;27.92;;;24.70;;
11338;SDS011;5724;42.684;23.252;2022-10-22T08:17:04;28.50;;;23.70;;
11338;SDS011;5724;42.684;23.252;2022-10-22T08:19:29;25.50;;;22.63;;
11338;SDS011;5724;42.684;23.252;2022-10-22T08:21:56;24.98;;;22.30;;
11338;SDS011;5724;42.684;23.252;2022-10-22T08:24:22;26.60;;;22.83;;
11338;SDS011;5724;42.684;23.252;2022-10-22T08:26:48;22.52;;;20.15;;
11338;SDS011;5724;42.684;23.252;2022-10-22T08:29:13;22.73;;;20.52;;
11338;SDS011;5724;42.684;23.252;2022-10-22T08:31:39;22.00;;;19.55;;
11338;SDS011;5724;42.684;23.252;2022-10-22T08:34:04;25.55;;;20.63;;
11338;SDS011;5724;42.684;23.252;2022-10-22T08:36:30;21.83;;;19.60;;
11338;SDS011;5724;42.684;23.252;2022-10-22T08:38:55;21.42;;;19.20;;
11338;SDS011;5724;42.684;23.252;2022-10-22T08:41:21;22.83;;;20.13;;
11338;SDS011;5724;42.684;23.252;2022-10-22T08:46:42;23.48;;;21.17;;
11338;SDS011;5724;42.684;23.252;2022-10-22T08:49:20;23.67;;;21.17;;
11338;SDS011;5724;42.684;23.252;2022-10-22T08:51:48;23.75;;;20.77;;
11338;SDS011;5724;42.684;23.252;2022-10-22T09:00:01;26.08;;;21.50;;
11338;SDS011;5724;42.684;23.252;2022-10-22T09:08:22;25.48;;;21.65;;
11338;SDS011;5724;42.684;23.252;2022-10-22T09:10:49;24.00;;;21.48;;
11338;SDS011;5724;42.684;23.252;2022-10-22T09:13:19;24.67;;;22.35;;
11338;SDS011;5724;42.684;23.252;2022-10-22T09:15:51;25.48;;;22.85;;
11338;SDS011;5724;42.684;23.252;2022-10-22T09:18:34;26.77;;;21.77;;
11338;SDS011;5724;42.684;23.252;2022-10-22T09:21:10;24.48;;;22.05;;
11338;SDS011;5724;42.684;23.252;2022-10-22T09:24:04;24.38;;;22.02;;
11338;SDS011;5724;42.684;23.252;2022-10-22T09:26:37;24.05;;;21.45;;
11338;SDS011;5724;42.684;23.252;2022-10-22T09:29:04;25.55;;;22.98;;
11338;SDS011;5724;42.684;23.252;2022-10-22T09:31:31;24.70;;;22.02;;
11338;SDS011;5724;42.684;23.252;2022-10-22T09:33:58;24.08;;;21.52;;
11338;SDS011;5724;42.684;23.252;2022-10-22T09:36:29;23.92;;;21.60;;
11338;SDS011;5724;42.684;23.252;2022-10-22T09:38:56;24.02;;;21.58;;
11338;SDS011;5724;42.684;23.252;2022-10-22T09:41:23;23.95;;;21.67;;
11338;SDS011;5724;42.684;23.252;2022-10-22T09:43:51;27.88;;;22.77;;
11338;SDS011;5724;42.684;23.252;2022-10-22T09:46:20;25.35;;;22.23;;
11338;SDS011;5724;42.684;23.252;2022-10-22T09:51:20;25.00;;;22.52;;
11338;SDS011;5724;42.684;23.252;2022-10-22T09:53:58;29.05;;;22.67;;
11338;SDS011;5724;42.684;23.252;2022-10-22T09:56:36;24.75;;;22.35;;
11338;SDS011;5724;42.684;23.252;2022-10-22T09:59:11;23.60;;;21.33;;
11338;SDS011;5724;42.684;23.252;2022-10-22T10:01:39;24.58;;;22.05;;
11338;SDS011;5724;42.684;23.252;2022-10-22T10:04:09;24.40;;;21.85;;
11338;SDS011;5724;42.684;23.252;2022-10-22T10:06:38;23.55;;;20.95;;
11338;SDS011;5724;42.684;23.252;2022-10-22T10:09:17;25.13;;;22.60;;
11338;SDS011;5724;42.684;23.252;2022-10-22T10:11:48;25.15;;;21.20;;
11338;SDS011;5724;42.684;23.252;2022-10-22T10:20:26;24.05;;;20.90;;
11338;SDS011;5724;42.684;23.252;2022-10-22T10:23:17;23.20;;;20.77;;
11338;SDS011;5724;42.684;23.252;2022-10-22T10:25:57;23.05;;;20.73;;
11338;SDS011;5724;42.684;23.252;2022-10-22T10:37:01;29.02;;;22.63;;
11338;SDS011;5724;42.684;23.252;2022-10-22T10:45:16;26.73;;;22.20;;
11338;SDS011;5724;42.684;23.252;2022-10-22T11:01:34;23.80;;;21.50;;
11338;SDS011;5724;42.684;23.252;2022-10-22T11:06:38;22.20;;;19.95;;
11338;SDS011;5724;42.684;23.252;2022-10-22T11:09:20;22.58;;;19.63;;
11338;SDS011;5724;42.684;23.252;2022-10-22T11:11:53;21.90;;;19.58;;
11338;SDS011;5724;42.684;23.252;2022-10-22T11:14:30;21.88;;;19.58;;
11338;SDS011;5724;42.684;23.252;2022-10-22T11:18:01;22.60;;;20.30;;
11338;SDS011;5724;42.684;23.252;2022-10-22T11:20:23;29.38;;;20.42;;
11338;SDS011;5724;42.684;23.252;2022-10-22T11:22:56;22.13;;;19.98;;
11338;SDS011;5724;42.684;23.252;2022-10-22T11:25:28;21.73;;;18.92;;
11338;SDS011;5724;42.684;23.252;2022-10-22T11:28:00;20.40;;;18.05;;
11338;SDS011;5724;42.684;23.252;2022-10-22T11:30:31;21.05;;;18.75;;
11338;SDS011;5724;42.684;23.252;2022-10-22T11:33:01;22.88;;;17.13;;
11338;SDS011;5724;42.684;23.252;2022-10-22T11:35:30;19.40;;;17.23;;
11338;SDS011;5724;42.684;23.252;2022-10-22T11:37:59;20.63;;;17.35;;
11338;SDS011;5724;42.684;23.252;2022-10-22T11:43:24;23.05;;;18.42;;
11338;SDS011;5724;42.684;23.252;2022-10-22T11:46:07;20.13;;;18.13;;
11338;SDS011;5724;42.684;23.252;2022-10-22T11:49:27;19.30;;;16.05;;
11338;SDS011;5724;42.684;23.252;2022-10-22T11:54:52;20.23;;;16.38;;
11338;SDS011;5724;42.684;23.252;2022-10-22T11:57:40;17.90;;;15.98;;
11338;SDS011;5724;42.684;23.252;2022-10-22T12:00:31;17.17;;;15.35;;
11338;SDS011;5724;42.684;23.252;2022-10-22T12:03:02;19.00;;;15.98;;
11338;SDS011;5724;42.684;23.252;2022-10-22T12:06:01;35.28;;;25.63;;
11338;SDS011;5724;42.684;23.252;2022-10-22T12:16:23;18.67;;;14.88;;
11338;SDS011;5724;42.684;23.252;2022-10-22T12:18:54;19.15;;;15.02;;
11338;SDS011;5724;42.684;23.252;2022-10-22T12:21:24;15.45;;;14.13;;
11338;SDS011;5724;42.684;23.252;2022-10-22T12:23:50;17.58;;;13.75;;
11338;SDS011;5724;42.684;23.252;2022-10-22T12:26:27;16.08;;;14.32;;
11338;SDS011;5724;42.684;23.252;2022-10-22T12:28:58;16.92;;;12.88;;
11338;SDS011;5724;42.684;23.252;2022-10-22T12:31:24;17.70;;;14.07;;
11338;SDS011;5724;42.684;23.252;2022-10-22T12:33:57;15.52;;;13.65;;
11338;SDS011;5724;42.684;23.252;2022-10-22T12:36:27;16.17;;;14.65;;
11338;SDS011;5724;42.684;23.252;2022-10-22T12:38:54;17.15;;;13.25;;
11338;SDS011;5724;42.684;23.252;2022-10-22T12:41:33;17.77;;;13.25;;
11338;SDS011;5724;42.684;23.252;2022-10-22T12:44:01;18.85;;;16.23;;
11338;SDS011;5724;42.684;23.252;2022-10-22T12:46:28;14.50;;;13.10;;
11338;SDS011;5724;42.684;23.252;2022-10-22T12:48:59;14.32;;;12.93;;
11338;SDS011;5724;42.684;23.252;2022-10-22T12:51:28;15.68;;;12.75;;
11338;SDS011;5724;42.684;23.252;2022-10-22T12:53:55;19.45;;;13.43;;
11338;SDS011;5724;42.684;23.252;2022-10-22T12:56:33;15.80;;;12.80;;
11338;SDS011;5724;42.684;23.252;2022-10-22T13:01:47;15.45;;;13.10;;
11338;SDS011;5724;42.684;23.252;2022-10-22T13:06:48;13.57;;;12.32;;
11338;SDS011;5724;42.684;23.252;2022-10-22T13:09:36;17.25;;;12.32;;
11338;SDS011;5724;42.684;23.252;2022-10-22T13:12:02;14.13;;;12.32;;
11338;SDS011;5724;42.684;23.252;2022-10-22T13:14:36;12.38;;;10.88;;
11338;SDS011;5724;42.684;23.252;2022-10-22T13:19:41;21.00;;;12.02;;
11338;SDS011;5724;42.684;23.252;2022-10-22T13:24:50;17.65;;;14.48;;
11338;SDS011;5724;42.684;23.252;2022-10-22T13:27:16;14.10;;;12.65;;
11338;SDS011;5724;42.684;23.252;2022-10-22T13:29:41;19.83;;;17.80;;
11338;SDS011;5724;42.684;23.252;2022-10-22T13:32:16;14.30;;;13.00;;
11338;SDS011;5724;42.684;23.252;2022-10-22T13:34:46;30.92;;;28.00;;
11338;SDS011;5724;42.684;23.252;2022-10-22T13:37:11;30.98;;;24.45;;
11338;SDS011;5724;42.684;23.252;2022-10-22T13:39:37;20.10;;;17.95;;
11338;SDS011;5724;42.684;23.252;2022-10-22T13:42:02;18.15;;;16.45;;
11338;SDS011;5724;42.684;23.252;2022-10-22T13:44:35;14.68;;;13.38;;
11338;SDS011;5724;42.684;23.252;2022-10-22T13:47:00;12.32;;;11.32;;
11338;SDS011;5724;42.684;23.252;2022-10-22T13:49:26;14.23;;;12.43;;
11338;SDS011;5724;42.684;23.252;2022-10-22T13:51:51;16.05;;;11.35;;
11338;SDS011;5724;42.684;23.252;2022-10-22T13:54:18;12.98;;;10.77;;
11338;SDS011;5724;42.684;23.252;2022-10-22T13:56:46;14.27;;;11.90;;
11338;SDS011;5724;42.684;23.252;2022-10-22T13:59:12;18.23;;;10.77;;
11338;SDS011;5724;42.684;23.252;2022-10-22T14:01:38;13.00;;;11.38;;
11338;SDS011;5724;42.684;23.252;2022-10-22T14:04:04;18.52;;;10.77;;
11338;SDS011;5724;42.684;23.252;2022-10-22T14:06:31;14.80;;;10.13;;
11338;SDS011;5724;42.684;23.252;2022-10-22T14:08:58;20.45;;;10.95;;
11338;SDS011;5724;42.684;23.252;2022-10-22T14:11:26;22.17;;;11.82;;
11338;SDS011;5724;42.684;23.252;2022-10-22T14:13:52;12.73;;;11.40;;
11338;SDS011;5724;42.684;23.252;2022-10-22T14:16:19;12.82;;;10.20;;
11338;SDS011;5724;42.684;23.252;2022-10-22T14:18:46;19.75;;;10.38;;
11338;SDS011;5724;42.684;23.252;2022-10-22T14:21:13;12.82;;;9.50;;
11338;SDS011;5724;42.684;23.252;2022-10-22T14:23:40;12.20;;;10.80;;
11338;SDS011;5724;42.684;23.252;2022-10-22T14:26:07;17.50;;;11.90;;
11338;SDS011;5724;42.684;23.252;2022-10-22T14:28:38;14.07;;;11.63;;
11338;SDS011;5724;42.684;23.252;2022-10-22T14:31:03;15.80;;;10.38;;
11338;SDS011;5724;42.684;23.252;2022-10-22T14:33:30;14.05;;;10.93;;
11338;SDS011;5724;42.684;23.252;2022-10-22T14:35:56;18.30;;;10.30;;
11338;SDS011;5724;42.684;23.252;2022-10-22T14:38:23;11.68;;;10.48;;
11338;SDS011;5724;42.684;23.252;2022-10-22T14:40:48;14.32;;;11.02;;
11338;SDS011;5724;42.684;23.252;2022-10-22T14:43:27;16.13;;;10.63;;
11338;SDS011;5724;42.684;23.252;2022-10-22T14:45:55;12.48;;;11.25;;
11338;SDS011;5724;42.684;23.252;2022-10-22T14:48:21;21.65;;;14.18;;
11338;SDS011;5724;42.684;23.252;2022-10-22T14:50:47;24.75;;;14.98;;
11338;SDS011;5724;42.684;23.252;2022-10-22T14:53:13;23.92;;;13.85;;
11338;SDS011;5724;42.684;23.252;2022-10-22T14:55:40;20.65;;;15.52;;
11338;SDS011;5724;42.684;23.252;2022-10-22T14:58:08;24.17;;;15.75;;
11338;SDS011;5724;42.684;23.252;2022-10-22T15:00:34;19.92;;;13.10;;
11338;SDS011;5724;42.684;23.252;2022-10-22T15:03:00;12.65;;;11.35;;
11338;SDS011;5724;42.684;23.252;2022-10-22T15:05:27;12.07;;;10.90;;
11338;SDS011;5724;42.684;23.252;2022-10-22T15:07:52;17.23;;;12.73;;
11338;SDS011;5724;42.684;23.252;2022-10-22T15:10:18;13.48;;;12.10;;
11338;SDS011;5724;42.684;23.252;2022-10-22T15:12:43;16.60;;;11.75;;
11338;SDS011;5724;42.684;23.252;2022-10-22T15:15:09;19.00;;;13.02;;
11338;SDS011;5724;42.684;23.252;2022-10-22T15:17:34;18.95;;;13.85;;
11338;SDS011;5724;42.684;23.252;2022-10-22T15:20:00;21.23;;;18.05;;
11338;SDS011;5724;42.684;23.252;2022-10-22T15:22:28;21.08;;;16.33;;
11338;SDS011;5724;42.684;23.252;2022-10-22T15:24:56;17.00;;;15.25;;
11338;SDS011;5724;42.684;23.252;2022-10-22T15:27:22;22.02;;;15.63;;
11338;SDS011;5724;42.684;23.252;2022-10-22T15:29:48;23.50;;;17.38;;
11338;SDS011;5724;42.684;23.252;2022-10-22T15:32:13;21.40;;;17.90;;
11338;SDS011;5724;42.684;23.252;2022-10-22T15:34:39;24.63;;;18.45;;
11338;SDS011;5724;42.684;23.252;2022-10-22T15:37:08;17.88;;;16.00;;
11338;SDS011;5724;42.684;23.252;2022-10-22T15:39:39;22.60;;;15.95;;
11338;SDS011;5724;42.684;23.252;2022-10-22T15:42:06;15.98;;;13.98;;
11338;SDS011;5724;42.684;23.252;2022-10-22T15:44:31;21.48;;;17.02;;
11338;SDS011;5724;42.684;23.252;2022-10-22T15:46:57;18.63;;;14.63;;
11338;SDS011;5724;42.684;23.252;2022-10-22T15:49:24;20.35;;;14.80;;
11338;SDS011;5724;42.684;23.252;2022-10-22T15:51:50;22.73;;;19.05;;
11338;SDS011;5724;42.684;23.252;2022-10-22T15:54:17;19.70;;;16.50;;
11338;SDS011;5724;42.684;23.252;2022-10-22T15:56:48;19.92;;;15.13;;
11338;SDS011;5724;42.684;23.252;2022-10-22T15:59:14;24.85;;;20.00;;
11338;SDS011;5724;42.684;23.252;2022-10-22T16:01:40;24.38;;;18.33;;
11338;SDS011;5724;42.684;23.252;2022-10-22T16:04:06;18.00;;;15.57;;
11338;SDS011;5724;42.684;23.252;2022-10-22T16:06:33;18.02;;;15.95;;
11338;SDS011;5724;42.684;23.252;2022-10-22T16:09:01;25.23;;;17.52;;
11338;SDS011;5724;42.684;23.252;2022-10-22T16:11:29;25.05;;;19.23;;
11338;SDS011;5724;42.684;23.252;2022-10-22T16:13:56;26.55;;;19.85;;